sensor_id;sensor_type;location;lat;lon;timestamp;P1;durP1;ratioP1;P2;durP2;ratioP2
62788;SDS011;66401;42.016;21.454;2024-02-26T00:02:20;6.97;;;4.87;;
62788;SDS011;66401;42.016;21.454;2024-02-26T00:04:46;8.40;;;4.60;;
62788;SDS011;66401;42.016;21.454;2024-02-26T00:07:11;7.13;;;5.03;;
62788;SDS011;66401;42.016;21.454;2024-02-26T00:09:37;10.77;;;4.90;;
62788;SDS011;66401;42.016;21.454;2024-02-26T00:12:11;7.20;;;4.93;;
62788;SDS011;66401;42.016;21.454;2024-02-26T00:14:37;4.93;;;4.53;;
62788;SDS011;66401;42.016;21.454;2024-02-26T00:17:02;8.27;;;5.13;;
62788;SDS011;66401;42.016;21.454;2024-02-26T00:19:28;7.13;;;5.00;;
62788;SDS011;66401;42.016;21.454;2024-02-26T00:21:53;9.47;;;5.33;;
62788;SDS011;66401;42.016;21.454;2024-02-26T00:24:20;11.57;;;6.47;;
62788;SDS011;66401;42.016;21.454;2024-02-26T00:26:46;9.97;;;6.40;;
62788;SDS011;66401;42.016;21.454;2024-02-26T00:29:11;7.90;;;5.43;;
62788;SDS011;66401;42.016;21.454;2024-02-26T00:31:37;11.50;;;6.20;;
62788;SDS011;66401;42.016;21.454;2024-02-26T00:34:05;14.17;;;8.37;;
62788;SDS011;66401;42.016;21.454;2024-02-26T00:36:31;10.47;;;5.73;;
62788;SDS011;66401;42.016;21.454;2024-02-26T00:38:56;9.37;;;6.33;;
62788;SDS011;66401;42.016;21.454;2024-02-26T00:41:22;12.40;;;5.40;;
62788;SDS011;66401;42.016;21.454;2024-02-26T00:43:48;7.80;;;5.03;;
62788;SDS011;66401;42.016;21.454;2024-02-26T00:46:13;6.60;;;4.10;;
62788;SDS011;66401;42.016;21.454;2024-02-26T00:48:39;9.60;;;4.90;;
62788;SDS011;66401;42.016;21.454;2024-02-26T00:51:05;7.50;;;4.83;;
62788;SDS011;66401;42.016;21.454;2024-02-26T00:53:30;4.10;;;3.80;;
62788;SDS011;66401;42.016;21.454;2024-02-26T00:55:57;11.33;;;5.00;;
62788;SDS011;66401;42.016;21.454;2024-02-26T00:58:24;5.33;;;3.77;;
62788;SDS011;66401;42.016;21.454;2024-02-26T01:00:50;5.43;;;3.90;;
62788;SDS011;66401;42.016;21.454;2024-02-26T01:03:15;5.33;;;3.93;;
62788;SDS011;66401;42.016;21.454;2024-02-26T01:05:42;4.87;;;4.03;;
62788;SDS011;66401;42.016;21.454;2024-02-26T01:08:07;5.10;;;4.27;;
62788;SDS011;66401;42.016;21.454;2024-02-26T01:10:33;4.53;;;3.57;;
62788;SDS011;66401;42.016;21.454;2024-02-26T01:12:59;6.27;;;4.40;;
62788;SDS011;66401;42.016;21.454;2024-02-26T01:15:25;5.73;;;4.50;;
62788;SDS011;66401;42.016;21.454;2024-02-26T01:17:50;4.80;;;3.93;;
62788;SDS011;66401;42.016;21.454;2024-02-26T01:20:16;5.30;;;4.30;;
62788;SDS011;66401;42.016;21.454;2024-02-26T01:22:42;5.77;;;4.43;;
62788;SDS011;66401;42.016;21.454;2024-02-26T01:25:09;12.73;;;4.10;;
62788;SDS011;66401;42.016;21.454;2024-02-26T01:27:35;5.07;;;4.33;;
62788;SDS011;66401;42.016;21.454;2024-02-26T01:30:04;6.43;;;4.40;;
62788;SDS011;66401;42.016;21.454;2024-02-26T01:32:30;6.60;;;4.27;;
62788;SDS011;66401;42.016;21.454;2024-02-26T01:34:56;5.80;;;4.23;;
62788;SDS011;66401;42.016;21.454;2024-02-26T01:37:22;7.67;;;4.60;;
62788;SDS011;66401;42.016;21.454;2024-02-26T01:39:47;7.77;;;4.53;;
62788;SDS011;66401;42.016;21.454;2024-02-26T01:42:13;5.67;;;4.27;;
62788;SDS011;66401;42.016;21.454;2024-02-26T01:44:39;6.90;;;4.27;;
62788;SDS011;66401;42.016;21.454;2024-02-26T01:47:05;8.03;;;4.20;;
62788;SDS011;66401;42.016;21.454;2024-02-26T01:49:33;5.17;;;4.67;;
62788;SDS011;66401;42.016;21.454;2024-02-26T01:52:00;5.03;;;3.87;;
62788;SDS011;66401;42.016;21.454;2024-02-26T01:54:28;4.60;;;4.20;;
62788;SDS011;66401;42.016;21.454;2024-02-26T01:56:54;5.50;;;4.67;;
62788;SDS011;66401;42.016;21.454;2024-02-26T01:59:20;6.10;;;3.50;;
62788;SDS011;66401;42.016;21.454;2024-02-26T02:01:47;9.17;;;3.40;;
62788;SDS011;66401;42.016;21.454;2024-02-26T02:04:18;6.33;;;4.50;;
62788;SDS011;66401;42.016;21.454;2024-02-26T02:06:45;4.83;;;3.90;;
62788;SDS011;66401;42.016;21.454;2024-02-26T02:09:11;7.57;;;4.50;;
62788;SDS011;66401;42.016;21.454;2024-02-26T02:11:37;5.30;;;4.27;;
62788;SDS011;66401;42.016;21.454;2024-02-26T02:14:03;6.50;;;4.80;;
62788;SDS011;66401;42.016;21.454;2024-02-26T02:16:28;6.13;;;4.77;;
62788;SDS011;66401;42.016;21.454;2024-02-26T02:18:54;5.27;;;3.63;;
62788;SDS011;66401;42.016;21.454;2024-02-26T02:21:19;4.93;;;4.20;;
62788;SDS011;66401;42.016;21.454;2024-02-26T02:23:45;7.67;;;4.30;;
62788;SDS011;66401;42.016;21.454;2024-02-26T02:26:12;7.07;;;3.93;;
62788;SDS011;66401;42.016;21.454;2024-02-26T02:28:39;4.77;;;3.80;;
62788;SDS011;66401;42.016;21.454;2024-02-26T02:31:05;10.83;;;4.67;;
62788;SDS011;66401;42.016;21.454;2024-02-26T02:33:31;6.63;;;3.87;;
62788;SDS011;66401;42.016;21.454;2024-02-26T02:35:56;6.77;;;4.33;;
62788;SDS011;66401;42.016;21.454;2024-02-26T02:38:23;5.03;;;4.40;;
62788;SDS011;66401;42.016;21.454;2024-02-26T02:40:50;4.23;;;3.67;;
62788;SDS011;66401;42.016;21.454;2024-02-26T02:43:19;7.30;;;4.23;;
62788;SDS011;66401;42.016;21.454;2024-02-26T02:45:44;4.90;;;3.83;;
62788;SDS011;66401;42.016;21.454;2024-02-26T02:48:13;7.43;;;4.17;;
62788;SDS011;66401;42.016;21.454;2024-02-26T02:50:38;5.57;;;4.37;;
62788;SDS011;66401;42.016;21.454;2024-02-26T02:53:04;5.73;;;3.90;;
62788;SDS011;66401;42.016;21.454;2024-02-26T02:55:30;11.97;;;6.90;;
62788;SDS011;66401;42.016;21.454;2024-02-26T02:57:55;14.30;;;8.13;;
62788;SDS011;66401;42.016;21.454;2024-02-26T03:00:21;16.47;;;9.17;;
62788;SDS011;66401;42.016;21.454;2024-02-26T03:02:49;14.90;;;9.23;;
62788;SDS011;66401;42.016;21.454;2024-02-26T03:05:15;20.80;;;11.00;;
62788;SDS011;66401;42.016;21.454;2024-02-26T03:07:41;19.87;;;11.50;;
62788;SDS011;66401;42.016;21.454;2024-02-26T03:10:06;21.10;;;12.30;;
62788;SDS011;66401;42.016;21.454;2024-02-26T03:12:33;20.37;;;13.00;;
62788;SDS011;66401;42.016;21.454;2024-02-26T03:14:59;18.77;;;12.17;;
62788;SDS011;66401;42.016;21.454;2024-02-26T03:17:28;17.03;;;12.03;;
62788;SDS011;66401;42.016;21.454;2024-02-26T03:19:54;20.60;;;12.43;;
62788;SDS011;66401;42.016;21.454;2024-02-26T03:22:20;17.57;;;11.90;;
62788;SDS011;66401;42.016;21.454;2024-02-26T03:24:45;16.43;;;11.27;;
62788;SDS011;66401;42.016;21.454;2024-02-26T03:27:12;19.10;;;11.47;;
62788;SDS011;66401;42.016;21.454;2024-02-26T03:29:37;18.73;;;12.47;;
62788;SDS011;66401;42.016;21.454;2024-02-26T03:32:03;20.13;;;12.00;;
62788;SDS011;66401;42.016;21.454;2024-02-26T03:34:32;17.40;;;11.67;;
62788;SDS011;66401;42.016;21.454;2024-02-26T03:37:01;17.03;;;11.73;;
62788;SDS011;66401;42.016;21.454;2024-02-26T03:39:26;16.83;;;11.07;;
62788;SDS011;66401;42.016;21.454;2024-02-26T03:41:52;13.83;;;10.67;;
62788;SDS011;66401;42.016;21.454;2024-02-26T03:44:17;17.63;;;11.50;;
62788;SDS011;66401;42.016;21.454;2024-02-26T03:46:43;21.20;;;11.53;;
62788;SDS011;66401;42.016;21.454;2024-02-26T03:49:08;19.80;;;12.20;;
62788;SDS011;66401;42.016;21.454;2024-02-26T03:51:34;22.03;;;12.60;;
62788;SDS011;66401;42.016;21.454;2024-02-26T03:54:00;20.87;;;12.03;;
62788;SDS011;66401;42.016;21.454;2024-02-26T03:56:26;23.10;;;14.57;;
62788;SDS011;66401;42.016;21.454;2024-02-26T03:58:52;24.40;;;12.50;;
62788;SDS011;66401;42.016;21.454;2024-02-26T04:01:17;20.27;;;13.20;;
62788;SDS011;66401;42.016;21.454;2024-02-26T04:03:43;25.60;;;13.90;;
62788;SDS011;66401;42.016;21.454;2024-02-26T04:06:09;21.67;;;14.27;;
62788;SDS011;66401;42.016;21.454;2024-02-26T04:08:46;21.33;;;13.33;;
62788;SDS011;66401;42.016;21.454;2024-02-26T04:11:12;22.17;;;12.87;;
62788;SDS011;66401;42.016;21.454;2024-02-26T04:13:38;21.83;;;13.23;;
62788;SDS011;66401;42.016;21.454;2024-02-26T04:16:04;21.83;;;13.53;;
62788;SDS011;66401;42.016;21.454;2024-02-26T04:18:31;20.37;;;13.57;;
62788;SDS011;66401;42.016;21.454;2024-02-26T04:20:56;16.93;;;11.83;;
62788;SDS011;66401;42.016;21.454;2024-02-26T04:23:22;20.70;;;11.67;;
62788;SDS011;66401;42.016;21.454;2024-02-26T04:25:48;17.83;;;11.87;;
62788;SDS011;66401;42.016;21.454;2024-02-26T04:28:13;18.50;;;13.20;;
62788;SDS011;66401;42.016;21.454;2024-02-26T04:30:40;23.40;;;13.07;;
62788;SDS011;66401;42.016;21.454;2024-02-26T04:33:06;21.27;;;12.57;;
62788;SDS011;66401;42.016;21.454;2024-02-26T04:35:31;19.87;;;11.83;;
62788;SDS011;66401;42.016;21.454;2024-02-26T04:37:57;22.60;;;12.30;;
62788;SDS011;66401;42.016;21.454;2024-02-26T04:40:23;19.43;;;11.03;;
62788;SDS011;66401;42.016;21.454;2024-02-26T04:42:49;19.70;;;11.53;;
62788;SDS011;66401;42.016;21.454;2024-02-26T04:45:14;16.47;;;11.23;;
62788;SDS011;66401;42.016;21.454;2024-02-26T04:47:40;18.43;;;10.53;;
62788;SDS011;66401;42.016;21.454;2024-02-26T04:50:06;20.13;;;11.63;;
62788;SDS011;66401;42.016;21.454;2024-02-26T04:52:31;27.30;;;11.47;;
62788;SDS011;66401;42.016;21.454;2024-02-26T04:54:57;20.50;;;11.53;;
62788;SDS011;66401;42.016;21.454;2024-02-26T04:57:24;18.40;;;10.53;;
62788;SDS011;66401;42.016;21.454;2024-02-26T04:59:51;16.37;;;9.50;;
62788;SDS011;66401;42.016;21.454;2024-02-26T05:02:17;18.67;;;11.77;;
62788;SDS011;66401;42.016;21.454;2024-02-26T05:04:42;15.97;;;10.40;;
62788;SDS011;66401;42.016;21.454;2024-02-26T05:07:08;19.17;;;11.30;;
62788;SDS011;66401;42.016;21.454;2024-02-26T05:09:34;18.23;;;12.00;;
62788;SDS011;66401;42.016;21.454;2024-02-26T05:12:00;17.10;;;11.07;;
62788;SDS011;66401;42.016;21.454;2024-02-26T05:14:25;19.83;;;11.53;;
62788;SDS011;66401;42.016;21.454;2024-02-26T05:16:51;17.23;;;10.97;;
62788;SDS011;66401;42.016;21.454;2024-02-26T05:19:16;18.67;;;10.87;;
62788;SDS011;66401;42.016;21.454;2024-02-26T05:21:42;19.03;;;11.93;;
62788;SDS011;66401;42.016;21.454;2024-02-26T05:24:09;19.30;;;11.43;;
62788;SDS011;66401;42.016;21.454;2024-02-26T05:26:35;22.73;;;11.87;;
62788;SDS011;66401;42.016;21.454;2024-02-26T05:29:00;20.30;;;11.17;;
62788;SDS011;66401;42.016;21.454;2024-02-26T05:31:26;20.23;;;12.13;;
62788;SDS011;66401;42.016;21.454;2024-02-26T05:33:52;21.00;;;10.87;;
62788;SDS011;66401;42.016;21.454;2024-02-26T05:36:19;21.03;;;10.70;;
62788;SDS011;66401;42.016;21.454;2024-02-26T05:38:51;19.80;;;10.83;;
62788;SDS011;66401;42.016;21.454;2024-02-26T05:41:16;22.07;;;11.73;;
62788;SDS011;66401;42.016;21.454;2024-02-26T05:43:48;18.33;;;10.73;;
62788;SDS011;66401;42.016;21.454;2024-02-26T05:46:16;17.57;;;11.03;;
62788;SDS011;66401;42.016;21.454;2024-02-26T05:48:43;17.17;;;11.00;;
62788;SDS011;66401;42.016;21.454;2024-02-26T05:51:09;19.20;;;10.33;;
62788;SDS011;66401;42.016;21.454;2024-02-26T05:53:34;17.70;;;11.67;;
62788;SDS011;66401;42.016;21.454;2024-02-26T05:56:00;17.63;;;10.63;;
62788;SDS011;66401;42.016;21.454;2024-02-26T05:58:25;20.67;;;12.27;;
62788;SDS011;66401;42.016;21.454;2024-02-26T06:00:51;19.20;;;11.70;;
62788;SDS011;66401;42.016;21.454;2024-02-26T06:03:16;21.53;;;12.07;;
62788;SDS011;66401;42.016;21.454;2024-02-26T06:05:42;24.67;;;12.60;;
62788;SDS011;66401;42.016;21.454;2024-02-26T06:08:08;19.80;;;12.70;;
62788;SDS011;66401;42.016;21.454;2024-02-26T06:10:33;22.90;;;12.30;;
62788;SDS011;66401;42.016;21.454;2024-02-26T06:12:59;21.63;;;12.90;;
62788;SDS011;66401;42.016;21.454;2024-02-26T06:15:27;25.07;;;12.13;;
62788;SDS011;66401;42.016;21.454;2024-02-26T06:17:53;20.10;;;12.43;;
62788;SDS011;66401;42.016;21.454;2024-02-26T06:20:18;22.90;;;12.80;;
62788;SDS011;66401;42.016;21.454;2024-02-26T06:22:44;23.77;;;11.90;;
62788;SDS011;66401;42.016;21.454;2024-02-26T06:25:10;20.73;;;12.57;;
62788;SDS011;66401;42.016;21.454;2024-02-26T06:27:35;23.93;;;13.17;;
62788;SDS011;66401;42.016;21.454;2024-02-26T06:30:01;21.00;;;13.77;;
62788;SDS011;66401;42.016;21.454;2024-02-26T06:32:26;23.10;;;13.70;;
62788;SDS011;66401;42.016;21.454;2024-02-26T06:34:53;23.10;;;13.00;;
62788;SDS011;66401;42.016;21.454;2024-02-26T06:37:19;23.37;;;13.43;;
62788;SDS011;66401;42.016;21.454;2024-02-26T06:39:44;19.03;;;12.00;;
62788;SDS011;66401;42.016;21.454;2024-02-26T06:42:10;19.73;;;12.47;;
62788;SDS011;66401;42.016;21.454;2024-02-26T06:44:35;21.87;;;13.70;;
62788;SDS011;66401;42.016;21.454;2024-02-26T06:47:01;27.17;;;14.23;;
62788;SDS011;66401;42.016;21.454;2024-02-26T06:49:27;21.27;;;12.43;;
62788;SDS011;66401;42.016;21.454;2024-02-26T06:51:53;27.07;;;13.70;;
62788;SDS011;66401;42.016;21.454;2024-02-26T06:54:19;23.37;;;12.73;;
62788;SDS011;66401;42.016;21.454;2024-02-26T06:56:44;21.40;;;12.80;;
62788;SDS011;66401;42.016;21.454;2024-02-26T06:59:10;22.73;;;13.30;;
62788;SDS011;66401;42.016;21.454;2024-02-26T07:01:35;23.20;;;13.73;;
62788;SDS011;66401;42.016;21.454;2024-02-26T07:04:01;22.00;;;14.10;;
62788;SDS011;66401;42.016;21.454;2024-02-26T07:06:27;25.70;;;14.03;;
62788;SDS011;66401;42.016;21.454;2024-02-26T07:08:52;21.77;;;14.27;;
62788;SDS011;66401;42.016;21.454;2024-02-26T07:11:19;18.53;;;13.17;;
62788;SDS011;66401;42.016;21.454;2024-02-26T07:13:45;26.97;;;14.70;;
62788;SDS011;66401;42.016;21.454;2024-02-26T07:16:14;23.40;;;13.67;;
62788;SDS011;66401;42.016;21.454;2024-02-26T07:18:40;19.67;;;13.30;;
62788;SDS011;66401;42.016;21.454;2024-02-26T07:21:06;19.60;;;12.87;;
62788;SDS011;66401;42.016;21.454;2024-02-26T07:23:32;19.17;;;12.33;;
62788;SDS011;66401;42.016;21.454;2024-02-26T07:25:57;19.50;;;12.97;;
62788;SDS011;66401;42.016;21.454;2024-02-26T07:28:24;21.13;;;13.90;;
62788;SDS011;66401;42.016;21.454;2024-02-26T07:30:49;20.47;;;13.70;;
62788;SDS011;66401;42.016;21.454;2024-02-26T07:33:15;20.83;;;13.90;;
62788;SDS011;66401;42.016;21.454;2024-02-26T07:35:41;20.70;;;12.90;;
62788;SDS011;66401;42.016;21.454;2024-02-26T07:38:06;18.70;;;12.87;;
62788;SDS011;66401;42.016;21.454;2024-02-26T07:40:32;20.40;;;12.23;;
62788;SDS011;66401;42.016;21.454;2024-02-26T07:42:57;18.83;;;12.87;;
62788;SDS011;66401;42.016;21.454;2024-02-26T07:45:23;16.57;;;11.10;;
62788;SDS011;66401;42.016;21.454;2024-02-26T07:47:48;18.10;;;11.70;;
62788;SDS011;66401;42.016;21.454;2024-02-26T07:50:16;16.83;;;11.00;;
62788;SDS011;66401;42.016;21.454;2024-02-26T07:52:43;14.83;;;10.07;;
62788;SDS011;66401;42.016;21.454;2024-02-26T07:55:09;14.70;;;9.93;;
62788;SDS011;66401;42.016;21.454;2024-02-26T07:57:35;13.20;;;9.30;;
62788;SDS011;66401;42.016;21.454;2024-02-26T08:00:02;12.73;;;9.07;;
62788;SDS011;66401;42.016;21.454;2024-02-26T08:02:28;14.13;;;10.57;;
62788;SDS011;66401;42.016;21.454;2024-02-26T08:04:54;14.83;;;10.03;;
62788;SDS011;66401;42.016;21.454;2024-02-26T08:07:19;12.60;;;9.00;;
62788;SDS011;66401;42.016;21.454;2024-02-26T08:09:46;13.50;;;9.60;;
62788;SDS011;66401;42.016;21.454;2024-02-26T08:12:12;11.13;;;8.50;;
62788;SDS011;66401;42.016;21.454;2024-02-26T08:14:37;10.20;;;8.53;;
62788;SDS011;66401;42.016;21.454;2024-02-26T08:17:03;53.00;;;27.50;;
62788;SDS011;66401;42.016;21.454;2024-02-26T08:19:28;15.60;;;11.00;;
62788;SDS011;66401;42.016;21.454;2024-02-26T08:21:54;12.83;;;9.90;;
62788;SDS011;66401;42.016;21.454;2024-02-26T08:24:19;13.90;;;9.77;;
62788;SDS011;66401;42.016;21.454;2024-02-26T08:26:45;12.43;;;9.17;;
62788;SDS011;66401;42.016;21.454;2024-02-26T08:29:11;12.43;;;8.67;;
62788;SDS011;66401;42.016;21.454;2024-02-26T08:31:36;12.73;;;9.37;;
62788;SDS011;66401;42.016;21.454;2024-02-26T08:34:03;15.67;;;8.70;;
62788;SDS011;66401;42.016;21.454;2024-02-26T08:36:29;11.87;;;8.27;;
62788;SDS011;66401;42.016;21.454;2024-02-26T08:38:56;12.23;;;8.83;;
62788;SDS011;66401;42.016;21.454;2024-02-26T08:41:22;11.83;;;8.67;;
62788;SDS011;66401;42.016;21.454;2024-02-26T08:43:47;17.93;;;12.03;;
62788;SDS011;66401;42.016;21.454;2024-02-26T08:46:13;15.33;;;9.70;;
62788;SDS011;66401;42.016;21.454;2024-02-26T08:48:39;13.90;;;9.23;;
62788;SDS011;66401;42.016;21.454;2024-02-26T08:51:08;13.97;;;8.17;;
62788;SDS011;66401;42.016;21.454;2024-02-26T08:53:34;14.17;;;9.03;;
62788;SDS011;66401;42.016;21.454;2024-02-26T08:56:00;13.83;;;8.77;;
62788;SDS011;66401;42.016;21.454;2024-02-26T08:58:29;16.30;;;9.27;;
62788;SDS011;66401;42.016;21.454;2024-02-26T09:00:55;8.93;;;7.93;;
62788;SDS011;66401;42.016;21.454;2024-02-26T09:03:20;12.87;;;8.13;;
62788;SDS011;66401;42.016;21.454;2024-02-26T09:05:46;10.57;;;7.30;;
62788;SDS011;66401;42.016;21.454;2024-02-26T09:08:12;11.87;;;8.60;;
62788;SDS011;66401;42.016;21.454;2024-02-26T09:10:38;9.63;;;7.13;;
62788;SDS011;66401;42.016;21.454;2024-02-26T09:13:04;8.67;;;4.93;;
62788;SDS011;66401;42.016;21.454;2024-02-26T09:15:29;4.63;;;2.87;;
62788;SDS011;66401;42.016;21.454;2024-02-26T09:17:55;7.40;;;4.70;;
62788;SDS011;66401;42.016;21.454;2024-02-26T09:20:21;10.10;;;6.20;;
62788;SDS011;66401;42.016;21.454;2024-02-26T09:22:47;10.07;;;6.30;;
62788;SDS011;66401;42.016;21.454;2024-02-26T09:25:13;6.63;;;5.93;;
62788;SDS011;66401;42.016;21.454;2024-02-26T09:27:41;83.22;;;17.40;;
62788;SDS011;66401;42.016;21.454;2024-02-26T09:30:10;6.45;;;4.32;;
62788;SDS011;66401;42.016;21.454;2024-02-26T09:32:37;3.83;;;3.42;;
62788;SDS011;66401;42.016;21.454;2024-02-26T09:35:03;5.63;;;3.67;;
62788;SDS011;66401;42.016;21.454;2024-02-26T09:37:29;4.40;;;2.67;;
62788;SDS011;66401;42.016;21.454;2024-02-26T09:39:54;4.07;;;2.55;;
62788;SDS011;66401;42.016;21.454;2024-02-26T09:42:20;2.92;;;2.63;;
62788;SDS011;66401;42.016;21.454;2024-02-26T09:44:45;2.10;;;1.77;;
62788;SDS011;66401;42.016;21.454;2024-02-26T09:47:11;2.47;;;2.13;;
62788;SDS011;66401;42.016;21.454;2024-02-26T09:49:45;5.50;;;3.35;;
62788;SDS011;66401;42.016;21.454;2024-02-26T09:52:12;6.53;;;3.27;;
62788;SDS011;66401;42.016;21.454;2024-02-26T09:54:41;31.00;;;6.60;;
62788;SDS011;66401;42.016;21.454;2024-02-26T09:57:08;5.77;;;2.57;;
62788;SDS011;66401;42.016;21.454;2024-02-26T09:59:41;2.80;;;2.53;;
62788;SDS011;66401;42.016;21.454;2024-02-26T10:02:16;4.07;;;2.00;;
62788;SDS011;66401;42.016;21.454;2024-02-26T10:04:45;2.90;;;2.03;;
62788;SDS011;66401;42.016;21.454;2024-02-26T10:07:12;3.97;;;2.33;;
62788;SDS011;66401;42.016;21.454;2024-02-26T10:09:38;2.93;;;2.27;;
62788;SDS011;66401;42.016;21.454;2024-02-26T10:12:04;6.97;;;2.83;;
62788;SDS011;66401;42.016;21.454;2024-02-26T10:14:32;3.13;;;2.50;;
62788;SDS011;66401;42.016;21.454;2024-02-26T10:16:58;3.23;;;2.40;;
62788;SDS011;66401;42.016;21.454;2024-02-26T10:19:26;4.50;;;2.27;;
62788;SDS011;66401;42.016;21.454;2024-02-26T10:21:56;11.00;;;3.07;;
62788;SDS011;66401;42.016;21.454;2024-02-26T10:24:23;2.47;;;2.27;;
62788;SDS011;66401;42.016;21.454;2024-02-26T10:26:50;5.87;;;2.63;;
62788;SDS011;66401;42.016;21.454;2024-02-26T10:29:17;6.10;;;2.93;;
62788;SDS011;66401;42.016;21.454;2024-02-26T10:31:43;3.47;;;2.87;;
62788;SDS011;66401;42.016;21.454;2024-02-26T10:34:09;3.20;;;2.60;;
62788;SDS011;66401;42.016;21.454;2024-02-26T10:36:35;3.67;;;2.13;;
62788;SDS011;66401;42.016;21.454;2024-02-26T10:39:02;3.10;;;2.40;;
62788;SDS011;66401;42.016;21.454;2024-02-26T10:41:29;3.30;;;2.73;;
62788;SDS011;66401;42.016;21.454;2024-02-26T10:43:55;3.73;;;2.30;;
62788;SDS011;66401;42.016;21.454;2024-02-26T10:46:20;4.53;;;2.13;;
62788;SDS011;66401;42.016;21.454;2024-02-26T10:48:52;4.47;;;2.23;;
62788;SDS011;66401;42.016;21.454;2024-02-26T10:51:25;1.73;;;1.63;;
62788;SDS011;66401;42.016;21.454;2024-02-26T10:53:54;3.83;;;1.77;;
62788;SDS011;66401;42.016;21.454;2024-02-26T10:56:27;3.23;;;1.80;;
62788;SDS011;66401;42.016;21.454;2024-02-26T10:58:56;3.43;;;2.07;;
62788;SDS011;66401;42.016;21.454;2024-02-26T11:01:23;5.03;;;1.97;;
62788;SDS011;66401;42.016;21.454;2024-02-26T11:03:51;3.57;;;2.57;;
62788;SDS011;66401;42.016;21.454;2024-02-26T11:06:17;4.27;;;2.40;;
62788;SDS011;66401;42.016;21.454;2024-02-26T11:08:47;4.53;;;2.30;;
62788;SDS011;66401;42.016;21.454;2024-02-26T11:11:14;3.67;;;2.17;;
62788;SDS011;66401;42.016;21.454;2024-02-26T11:13:41;2.17;;;2.00;;
62788;SDS011;66401;42.016;21.454;2024-02-26T11:16:13;2.23;;;2.03;;
62788;SDS011;66401;42.016;21.454;2024-02-26T11:18:39;7.17;;;2.00;;
62788;SDS011;66401;42.016;21.454;2024-02-26T11:21:07;1.43;;;1.33;;
62788;SDS011;66401;42.016;21.454;2024-02-26T11:23:33;1.13;;;1.13;;
62788;SDS011;66401;42.016;21.454;2024-02-26T11:26:02;2.70;;;2.03;;
62788;SDS011;66401;42.016;21.454;2024-02-26T11:28:30;2.03;;;1.80;;
62788;SDS011;66401;42.016;21.454;2024-02-26T11:30:59;3.37;;;1.90;;
62788;SDS011;66401;42.016;21.454;2024-02-26T11:33:26;2.63;;;1.73;;
62788;SDS011;66401;42.016;21.454;2024-02-26T11:35:53;1.73;;;1.63;;
62788;SDS011;66401;42.016;21.454;2024-02-26T11:38:20;2.67;;;1.67;;
62788;SDS011;66401;42.016;21.454;2024-02-26T11:40:49;4.30;;;1.73;;
62788;SDS011;66401;42.016;21.454;2024-02-26T11:43:16;4.70;;;2.07;;
62788;SDS011;66401;42.016;21.454;2024-02-26T11:48:14;4.10;;;1.67;;
62788;SDS011;66401;42.016;21.454;2024-02-26T11:50:53;2.67;;;1.80;;
62788;SDS011;66401;42.016;21.454;2024-02-26T11:53:22;4.30;;;1.83;;
62788;SDS011;66401;42.016;21.454;2024-02-26T11:59:00;2.38;;;1.55;;
62788;SDS011;66401;42.016;21.454;2024-02-26T12:01:41;4.35;;;1.90;;
62788;SDS011;66401;42.016;21.454;2024-02-26T12:04:21;6.68;;;1.88;;
62788;SDS011;66401;42.016;21.454;2024-02-26T12:06:58;2.97;;;1.80;;
62788;SDS011;66401;42.016;21.454;2024-02-26T12:09:41;1.60;;;1.50;;
62788;SDS011;66401;42.016;21.454;2024-02-26T12:12:11;1.88;;;1.75;;
62788;SDS011;66401;42.016;21.454;2024-02-26T12:14:57;4.10;;;1.65;;
62788;SDS011;66401;42.016;21.454;2024-02-26T12:17:23;4.20;;;1.80;;
62788;SDS011;66401;42.016;21.454;2024-02-26T12:19:50;4.43;;;2.23;;
62788;SDS011;66401;42.016;21.454;2024-02-26T12:22:18;2.63;;;1.43;;
62788;SDS011;66401;42.016;21.454;2024-02-26T12:24:44;3.27;;;1.60;;
62788;SDS011;66401;42.016;21.454;2024-02-26T12:27:10;4.03;;;1.70;;
62788;SDS011;66401;42.016;21.454;2024-02-26T12:29:36;6.00;;;1.77;;
62788;SDS011;66401;42.016;21.454;2024-02-26T12:32:05;4.03;;;1.70;;
62788;SDS011;66401;42.016;21.454;2024-02-26T12:34:31;5.43;;;2.30;;
62788;SDS011;66401;42.016;21.454;2024-02-26T12:36:57;3.40;;;1.73;;
62788;SDS011;66401;42.016;21.454;2024-02-26T12:39:23;2.67;;;1.80;;
62788;SDS011;66401;42.016;21.454;2024-02-26T12:41:49;2.10;;;1.90;;
62788;SDS011;66401;42.016;21.454;2024-02-26T12:44:15;2.33;;;1.43;;
62788;SDS011;66401;42.016;21.454;2024-02-26T12:46:41;3.53;;;1.90;;
62788;SDS011;66401;42.016;21.454;2024-02-26T12:49:07;2.10;;;1.57;;
62788;SDS011;66401;42.016;21.454;2024-02-26T12:51:33;3.50;;;2.03;;
62788;SDS011;66401;42.016;21.454;2024-02-26T12:53:59;3.70;;;2.90;;
62788;SDS011;66401;42.016;21.454;2024-02-26T12:56:26;4.87;;;3.20;;
62788;SDS011;66401;42.016;21.454;2024-02-26T12:58:52;3.27;;;2.47;;
62788;SDS011;66401;42.016;21.454;2024-02-26T13:01:19;4.47;;;2.40;;
62788;SDS011;66401;42.016;21.454;2024-02-26T13:03:49;3.00;;;2.23;;
62788;SDS011;66401;42.016;21.454;2024-02-26T13:06:16;2.80;;;2.60;;
62788;SDS011;66401;42.016;21.454;2024-02-26T13:08:42;4.20;;;2.90;;
62788;SDS011;66401;42.016;21.454;2024-02-26T13:11:08;4.83;;;2.43;;
62788;SDS011;66401;42.016;21.454;2024-02-26T13:13:34;3.47;;;2.70;;
62788;SDS011;66401;42.016;21.454;2024-02-26T13:16:03;5.97;;;2.80;;
62788;SDS011;66401;42.016;21.454;2024-02-26T13:18:31;5.67;;;3.10;;
62788;SDS011;66401;42.016;21.454;2024-02-26T13:21:07;6.73;;;2.83;;
62788;SDS011;66401;42.016;21.454;2024-02-26T13:23:34;6.80;;;2.70;;
62788;SDS011;66401;42.016;21.454;2024-02-26T13:25:59;4.23;;;2.90;;
62788;SDS011;66401;42.016;21.454;2024-02-26T13:28:25;3.10;;;2.80;;
62788;SDS011;66401;42.016;21.454;2024-02-26T13:30:53;5.23;;;2.73;;
62788;SDS011;66401;42.016;21.454;2024-02-26T13:33:22;5.13;;;2.67;;
62788;SDS011;66401;42.016;21.454;2024-02-26T13:35:49;6.77;;;2.80;;
62788;SDS011;66401;42.016;21.454;2024-02-26T13:38:15;4.30;;;2.50;;
62788;SDS011;66401;42.016;21.454;2024-02-26T13:40:41;3.97;;;2.60;;
62788;SDS011;66401;42.016;21.454;2024-02-26T13:43:06;5.37;;;2.73;;
62788;SDS011;66401;42.016;21.454;2024-02-26T13:45:36;9.60;;;2.87;;
62788;SDS011;66401;42.016;21.454;2024-02-26T13:48:03;2.97;;;2.30;;
62788;SDS011;66401;42.016;21.454;2024-02-26T13:50:32;5.23;;;2.40;;
62788;SDS011;66401;42.016;21.454;2024-02-26T13:52:58;3.33;;;2.20;;
62788;SDS011;66401;42.016;21.454;2024-02-26T13:55:27;8.37;;;3.30;;
62788;SDS011;66401;42.016;21.454;2024-02-26T13:57:55;4.90;;;2.50;;
62788;SDS011;66401;42.016;21.454;2024-02-26T14:00:22;2.97;;;2.70;;
62788;SDS011;66401;42.016;21.454;2024-02-26T14:02:48;2.93;;;2.60;;
62788;SDS011;66401;42.016;21.454;2024-02-26T14:05:14;6.80;;;2.43;;
62788;SDS011;66401;42.016;21.454;2024-02-26T14:07:39;4.97;;;2.23;;
62788;SDS011;66401;42.016;21.454;2024-02-26T14:10:06;4.27;;;2.60;;
62788;SDS011;66401;42.016;21.454;2024-02-26T14:12:32;3.77;;;2.50;;
62788;SDS011;66401;42.016;21.454;2024-02-26T14:14:57;5.50;;;2.57;;
62788;SDS011;66401;42.016;21.454;2024-02-26T14:17:25;4.43;;;2.80;;
62788;SDS011;66401;42.016;21.454;2024-02-26T14:19:51;4.47;;;2.97;;
62788;SDS011;66401;42.016;21.454;2024-02-26T14:22:17;4.70;;;2.70;;
62788;SDS011;66401;42.016;21.454;2024-02-26T14:24:42;3.30;;;2.70;;
62788;SDS011;66401;42.016;21.454;2024-02-26T14:27:08;3.20;;;2.77;;